sensor_id;sensor_type;location;lat;lon;timestamp;P1;durP1;ratioP1;P2;durP2;ratioP2
19030;SDS011;9648;51.130;13.978;2022-09-09T00:02:03;2.20;;;1.50;;
19030;SDS011;9648;51.130;13.978;2022-09-09T00:04:37;3.97;;;1.50;;
19030;SDS011;9648;51.130;13.978;2022-09-09T00:07:07;1.65;;;1.40;;
19030;SDS011;9648;51.130;13.978;2022-09-09T00:09:44;1.50;;;1.30;;
19030;SDS011;9648;51.130;13.978;2022-09-09T00:12:14;3.10;;;1.25;;
19030;SDS011;9648;51.130;13.978;2022-09-09T00:14:47;2.25;;;1.35;;
19030;SDS011;9648;51.130;13.978;2022-09-09T00:17:19;2.60;;;1.35;;
19030;SDS011;9648;51.130;13.978;2022-09-09T00:19:59;3.20;;;1.60;;
19030;SDS011;9648;51.130;13.978;2022-09-09T00:22:30;2.47;;;1.50;;
19030;SDS011;9648;51.130;13.978;2022-09-09T00:25:03;1.80;;;1.42;;
19030;SDS011;9648;51.130;13.978;2022-09-09T00:27:40;2.08;;;1.60;;
19030;SDS011;9648;51.130;13.978;2022-09-09T00:30:15;3.67;;;1.70;;
19030;SDS011;9648;51.130;13.978;2022-09-09T00:32:45;2.43;;;1.50;;
19030;SDS011;9648;51.130;13.978;2022-09-09T00:35:14;3.20;;;1.60;;
19030;SDS011;9648;51.130;13.978;2022-09-09T00:37:44;3.40;;;1.40;;
19030;SDS011;9648;51.130;13.978;2022-09-09T00:40:18;5.17;;;1.67;;
19030;SDS011;9648;51.130;13.978;2022-09-09T00:42:54;1.75;;;1.52;;
19030;SDS011;9648;51.130;13.978;2022-09-09T00:45:57;3.85;;;1.40;;
19030;SDS011;9648;51.130;13.978;2022-09-09T00:48:45;6.50;;;1.90;;
19030;SDS011;9648;51.130;13.978;2022-09-09T00:51:22;4.97;;;1.80;;
19030;SDS011;9648;51.130;13.978;2022-09-09T00:54:10;2.80;;;1.73;;
19030;SDS011;9648;51.130;13.978;2022-09-09T00:56:49;4.85;;;1.70;;
19030;SDS011;9648;51.130;13.978;2022-09-09T00:59:28;2.33;;;1.50;;
19030;SDS011;9648;51.130;13.978;2022-09-09T01:02:01;1.80;;;1.60;;
19030;SDS011;9648;51.130;13.978;2022-09-09T01:04:35;2.17;;;1.40;;
19030;SDS011;9648;51.130;13.978;2022-09-09T01:07:04;2.42;;;1.35;;
19030;SDS011;9648;51.130;13.978;2022-09-09T01:09:42;2.72;;;1.52;;
19030;SDS011;9648;51.130;13.978;2022-09-09T01:12:23;2.97;;;1.58;;
19030;SDS011;9648;51.130;13.978;2022-09-09T01:14:53;2.67;;;1.52;;
19030;SDS011;9648;51.130;13.978;2022-09-09T01:17:30;2.70;;;1.55;;
19030;SDS011;9648;51.130;13.978;2022-09-09T01:20:02;3.45;;;1.45;;
19030;SDS011;9648;51.130;13.978;2022-09-09T01:22:36;2.80;;;1.50;;
19030;SDS011;9648;51.130;13.978;2022-09-09T01:25:14;2.38;;;1.50;;
19030;SDS011;9648;51.130;13.978;2022-09-09T01:27:49;2.22;;;1.40;;
19030;SDS011;9648;51.130;13.978;2022-09-09T01:30:19;1.98;;;1.50;;
19030;SDS011;9648;51.130;13.978;2022-09-09T01:32:48;1.92;;;1.40;;
19030;SDS011;9648;51.130;13.978;2022-09-09T01:35:19;3.55;;;1.63;;
19030;SDS011;9648;51.130;13.978;2022-09-09T01:37:54;2.10;;;1.40;;
19030;SDS011;9648;51.130;13.978;2022-09-09T01:40:21;2.08;;;1.40;;
19030;SDS011;9648;51.130;13.978;2022-09-09T01:42:49;3.92;;;1.70;;
19030;SDS011;9648;51.130;13.978;2022-09-09T01:45:17;3.80;;;1.92;;
19030;SDS011;9648;51.130;13.978;2022-09-09T01:47:44;3.67;;;2.00;;
19030;SDS011;9648;51.130;13.978;2022-09-09T01:50:12;3.13;;;1.80;;
19030;SDS011;9648;51.130;13.978;2022-09-09T01:52:42;2.70;;;1.60;;
19030;SDS011;9648;51.130;13.978;2022-09-09T01:55:11;3.45;;;1.70;;
19030;SDS011;9648;51.130;13.978;2022-09-09T01:57:39;5.75;;;1.60;;
19030;SDS011;9648;51.130;13.978;2022-09-09T02:00:14;4.50;;;1.90;;
19030;SDS011;9648;51.130;13.978;2022-09-09T02:02:44;3.20;;;1.70;;
19030;SDS011;9648;51.130;13.978;2022-09-09T02:05:21;3.30;;;1.50;;
19030;SDS011;9648;51.130;13.978;2022-09-09T02:07:59;2.53;;;1.48;;
19030;SDS011;9648;51.130;13.978;2022-09-09T02:10:32;2.67;;;1.55;;
19030;SDS011;9648;51.130;13.978;2022-09-09T02:13:04;3.10;;;1.80;;
19030;SDS011;9648;51.130;13.978;2022-09-09T02:15:38;2.97;;;1.80;;
19030;SDS011;9648;51.130;13.978;2022-09-09T02:18:11;3.28;;;1.60;;
19030;SDS011;9648;51.130;13.978;2022-09-09T02:20:41;2.55;;;1.50;;
19030;SDS011;9648;51.130;13.978;2022-09-09T02:23:11;4.03;;;1.80;;
19030;SDS011;9648;51.130;13.978;2022-09-09T02:25:41;2.55;;;1.52;;
19030;SDS011;9648;51.130;13.978;2022-09-09T02:28:09;1.92;;;1.60;;
19030;SDS011;9648;51.130;13.978;2022-09-09T02:30:40;3.17;;;1.70;;
19030;SDS011;9648;51.130;13.978;2022-09-09T02:33:08;2.40;;;1.55;;
19030;SDS011;9648;51.130;13.978;2022-09-09T02:35:38;3.33;;;1.63;;
19030;SDS011;9648;51.130;13.978;2022-09-09T02:38:07;2.67;;;1.53;;
19030;SDS011;9648;51.130;13.978;2022-09-09T02:40:37;2.63;;;1.50;;
19030;SDS011;9648;51.130;13.978;2022-09-09T02:43:04;3.20;;;1.50;;
19030;SDS011;9648;51.130;13.978;2022-09-09T02:45:34;3.53;;;1.70;;
19030;SDS011;9648;51.130;13.978;2022-09-09T02:48:14;1.63;;;1.40;;
19030;SDS011;9648;51.130;13.978;2022-09-09T02:50:49;3.60;;;1.63;;
19030;SDS011;9648;51.130;13.978;2022-09-09T02:53:25;3.75;;;1.38;;
19030;SDS011;9648;51.130;13.978;2022-09-09T02:56:02;2.43;;;1.40;;
19030;SDS011;9648;51.130;13.978;2022-09-09T02:58:31;2.45;;;1.50;;
19030;SDS011;9648;51.130;13.978;2022-09-09T03:00:59;2.65;;;1.60;;
19030;SDS011;9648;51.130;13.978;2022-09-09T03:03:29;3.17;;;1.60;;
19030;SDS011;9648;51.130;13.978;2022-09-09T03:05:56;2.47;;;1.35;;
19030;SDS011;9648;51.130;13.978;2022-09-09T03:08:23;4.03;;;1.60;;
19030;SDS011;9648;51.130;13.978;2022-09-09T03:10:50;2.40;;;1.40;;
19030;SDS011;9648;51.130;13.978;2022-09-09T03:13:19;2.10;;;1.30;;
19030;SDS011;9648;51.130;13.978;2022-09-09T03:15:45;2.85;;;1.55;;
19030;SDS011;9648;51.130;13.978;2022-09-09T03:18:14;2.63;;;1.50;;
19030;SDS011;9648;51.130;13.978;2022-09-09T03:20:42;2.55;;;1.40;;
19030;SDS011;9648;51.130;13.978;2022-09-09T03:23:11;2.30;;;1.42;;
19030;SDS011;9648;51.130;13.978;2022-09-09T03:25:38;3.37;;;1.30;;
19030;SDS011;9648;51.130;13.978;2022-09-09T03:28:05;3.45;;;1.45;;
19030;SDS011;9648;51.130;13.978;2022-09-09T03:30:32;2.25;;;1.48;;
19030;SDS011;9648;51.130;13.978;2022-09-09T03:32:59;2.33;;;1.40;;
19030;SDS011;9648;51.130;13.978;2022-09-09T03:35:26;1.63;;;1.30;;
19030;SDS011;9648;51.130;13.978;2022-09-09T03:37:56;2.53;;;1.30;;
19030;SDS011;9648;51.130;13.978;2022-09-09T03:40:22;1.50;;;1.27;;
19030;SDS011;9648;51.130;13.978;2022-09-09T03:42:49;4.85;;;3.00;;
19030;SDS011;9648;51.130;13.978;2022-09-09T03:45:16;4.13;;;2.45;;
19030;SDS011;9648;51.130;13.978;2022-09-09T03:47:43;2.63;;;1.85;;
19030;SDS011;9648;51.130;13.978;2022-09-09T03:50:10;3.15;;;1.70;;
19030;SDS011;9648;51.130;13.978;2022-09-09T03:52:37;4.07;;;1.70;;
19030;SDS011;9648;51.130;13.978;2022-09-09T03:55:06;4.07;;;1.60;;
19030;SDS011;9648;51.130;13.978;2022-09-09T03:57:34;3.67;;;1.60;;
19030;SDS011;9648;51.130;13.978;2022-09-09T04:00:02;2.78;;;1.40;;
19030;SDS011;9648;51.130;13.978;2022-09-09T04:02:30;3.50;;;1.55;;
19030;SDS011;9648;51.130;13.978;2022-09-09T04:04:57;3.08;;;1.50;;
19030;SDS011;9648;51.130;13.978;2022-09-09T04:07:24;2.67;;;1.40;;
19030;SDS011;9648;51.130;13.978;2022-09-09T04:09:52;2.70;;;1.40;;
19030;SDS011;9648;51.130;13.978;2022-09-09T04:12:20;1.77;;;1.23;;
19030;SDS011;9648;51.130;13.978;2022-09-09T04:14:47;1.98;;;1.30;;
19030;SDS011;9648;51.130;13.978;2022-09-09T04:17:14;1.73;;;1.40;;
19030;SDS011;9648;51.130;13.978;2022-09-09T04:19:40;3.60;;;1.50;;
19030;SDS011;9648;51.130;13.978;2022-09-09T04:22:08;2.03;;;1.50;;
19030;SDS011;9648;51.130;13.978;2022-09-09T04:24:34;2.65;;;1.70;;
19030;SDS011;9648;51.130;13.978;2022-09-09T04:27:01;2.83;;;1.45;;
19030;SDS011;9648;51.130;13.978;2022-09-09T04:29:29;3.25;;;1.40;;
19030;SDS011;9648;51.130;13.978;2022-09-09T04:31:56;1.92;;;1.52;;
19030;SDS011;9648;51.130;13.978;2022-09-09T04:34:23;3.30;;;1.50;;
19030;SDS011;9648;51.130;13.978;2022-09-09T04:36:50;3.58;;;1.40;;
19030;SDS011;9648;51.130;13.978;2022-09-09T04:39:17;3.90;;;1.60;;
19030;SDS011;9648;51.130;13.978;2022-09-09T04:41:44;2.20;;;1.50;;
19030;SDS011;9648;51.130;13.978;2022-09-09T04:44:12;3.35;;;1.67;;
19030;SDS011;9648;51.130;13.978;2022-09-09T04:46:40;2.25;;;1.50;;
19030;SDS011;9648;51.130;13.978;2022-09-09T04:49:06;3.38;;;1.42;;
19030;SDS011;9648;51.130;13.978;2022-09-09T04:51:33;3.13;;;1.70;;
19030;SDS011;9648;51.130;13.978;2022-09-09T04:54:00;3.88;;;1.60;;
19030;SDS011;9648;51.130;13.978;2022-09-09T04:56:26;2.67;;;1.42;;
19030;SDS011;9648;51.130;13.978;2022-09-09T04:58:53;1.73;;;1.40;;
19030;SDS011;9648;51.130;13.978;2022-09-09T05:01:20;4.40;;;1.67;;
19030;SDS011;9648;51.130;13.978;2022-09-09T05:03:50;2.58;;;1.50;;
19030;SDS011;9648;51.130;13.978;2022-09-09T05:06:19;2.60;;;1.67;;
19030;SDS011;9648;51.130;13.978;2022-09-09T05:08:47;3.20;;;1.80;;
19030;SDS011;9648;51.130;13.978;2022-09-09T05:11:15;3.90;;;1.63;;
19030;SDS011;9648;51.130;13.978;2022-09-09T05:13:43;3.65;;;2.15;;
19030;SDS011;9648;51.130;13.978;2022-09-09T05:16:10;2.58;;;2.13;;
19030;SDS011;9648;51.130;13.978;2022-09-09T05:18:37;4.07;;;2.05;;
19030;SDS011;9648;51.130;13.978;2022-09-09T05:21:05;3.30;;;1.90;;
19030;SDS011;9648;51.130;13.978;2022-09-09T05:23:33;2.08;;;1.88;;
19030;SDS011;9648;51.130;13.978;2022-09-09T05:26:00;4.07;;;2.30;;
19030;SDS011;9648;51.130;13.978;2022-09-09T05:28:27;5.35;;;2.08;;
19030;SDS011;9648;51.130;13.978;2022-09-09T05:30:56;3.90;;;2.10;;
19030;SDS011;9648;51.130;13.978;2022-09-09T05:33:23;2.92;;;1.88;;
19030;SDS011;9648;51.130;13.978;2022-09-09T05:35:55;3.25;;;1.90;;
19030;SDS011;9648;51.130;13.978;2022-09-09T05:38:24;2.63;;;1.70;;
19030;SDS011;9648;51.130;13.978;2022-09-09T05:40:51;2.85;;;2.10;;
19030;SDS011;9648;51.130;13.978;2022-09-09T05:43:18;3.75;;;2.20;;
19030;SDS011;9648;51.130;13.978;2022-09-09T05:45:45;3.08;;;2.00;;
19030;SDS011;9648;51.130;13.978;2022-09-09T05:48:12;5.10;;;2.10;;
19030;SDS011;9648;51.130;13.978;2022-09-09T05:50:40;3.55;;;1.95;;
19030;SDS011;9648;51.130;13.978;2022-09-09T05:53:07;3.97;;;2.00;;
19030;SDS011;9648;51.130;13.978;2022-09-09T05:55:36;3.05;;;1.65;;
19030;SDS011;9648;51.130;13.978;2022-09-09T05:58:02;2.35;;;1.70;;
19030;SDS011;9648;51.130;13.978;2022-09-09T06:00:29;2.92;;;2.03;;
19030;SDS011;9648;51.130;13.978;2022-09-09T06:02:57;2.85;;;1.92;;
19030;SDS011;9648;51.130;13.978;2022-09-09T06:05:23;3.70;;;1.90;;
19030;SDS011;9648;51.130;13.978;2022-09-09T06:07:52;5.27;;;2.00;;
19030;SDS011;9648;51.130;13.978;2022-09-09T06:10:19;3.95;;;1.85;;
19030;SDS011;9648;51.130;13.978;2022-09-09T06:12:47;4.45;;;1.90;;
19030;SDS011;9648;51.130;13.978;2022-09-09T06:15:14;4.55;;;2.30;;
19030;SDS011;9648;51.130;13.978;2022-09-09T06:17:40;3.70;;;1.80;;
19030;SDS011;9648;51.130;13.978;2022-09-09T06:20:08;6.28;;;3.60;;
19030;SDS011;9648;51.130;13.978;2022-09-09T06:22:38;4.57;;;3.28;;
19030;SDS011;9648;51.130;13.978;2022-09-09T06:25:06;2.85;;;2.30;;
19030;SDS011;9648;51.130;13.978;2022-09-09T06:27:34;5.45;;;1.92;;
19030;SDS011;9648;51.130;13.978;2022-09-09T06:30:02;5.05;;;1.95;;
19030;SDS011;9648;51.130;13.978;2022-09-09T06:32:29;5.32;;;1.92;;
19030;SDS011;9648;51.130;13.978;2022-09-09T06:34:59;3.47;;;1.90;;
19030;SDS011;9648;51.130;13.978;2022-09-09T06:37:26;3.08;;;1.63;;
19030;SDS011;9648;51.130;13.978;2022-09-09T06:39:53;5.30;;;1.80;;
19030;SDS011;9648;51.130;13.978;2022-09-09T06:42:20;4.77;;;1.77;;
19030;SDS011;9648;51.130;13.978;2022-09-09T06:44:47;2.13;;;1.60;;
19030;SDS011;9648;51.130;13.978;2022-09-09T06:47:15;2.72;;;1.42;;
19030;SDS011;9648;51.130;13.978;2022-09-09T06:49:41;6.53;;;1.80;;
19030;SDS011;9648;51.130;13.978;2022-09-09T06:52:08;2.75;;;1.65;;
19030;SDS011;9648;51.130;13.978;2022-09-09T06:54:35;3.42;;;1.70;;
19030;SDS011;9648;51.130;13.978;2022-09-09T06:57:02;2.58;;;1.40;;
19030;SDS011;9648;51.130;13.978;2022-09-09T06:59:32;5.07;;;1.80;;
19030;SDS011;9648;51.130;13.978;2022-09-09T07:01:58;3.50;;;1.87;;
19030;SDS011;9648;51.130;13.978;2022-09-09T07:04:27;3.58;;;1.88;;
19030;SDS011;9648;51.130;13.978;2022-09-09T07:06:54;2.67;;;1.58;;
19030;SDS011;9648;51.130;13.978;2022-09-09T07:09:20;3.10;;;1.42;;
19030;SDS011;9648;51.130;13.978;2022-09-09T07:11:48;3.70;;;1.30;;
19030;SDS011;9648;51.130;13.978;2022-09-09T07:14:17;3.97;;;1.50;;
19030;SDS011;9648;51.130;13.978;2022-09-09T07:16:44;3.38;;;1.20;;
19030;SDS011;9648;51.130;13.978;2022-09-09T07:19:12;4.18;;;1.45;;
19030;SDS011;9648;51.130;13.978;2022-09-09T07:21:41;4.40;;;1.35;;
19030;SDS011;9648;51.130;13.978;2022-09-09T07:24:08;2.55;;;1.10;;
19030;SDS011;9648;51.130;13.978;2022-09-09T07:26:36;3.95;;;1.25;;
19030;SDS011;9648;51.130;13.978;2022-09-09T07:29:03;2.87;;;1.00;;
19030;SDS011;9648;51.130;13.978;2022-09-09T07:31:31;2.95;;;1.20;;
19030;SDS011;9648;51.130;13.978;2022-09-09T07:33:59;1.90;;;1.10;;
19030;SDS011;9648;51.130;13.978;2022-09-09T07:36:26;4.10;;;1.20;;
19030;SDS011;9648;51.130;13.978;2022-09-09T07:38:56;3.50;;;1.17;;
19030;SDS011;9648;51.130;13.978;2022-09-09T07:41:25;3.30;;;1.00;;
19030;SDS011;9648;51.130;13.978;2022-09-09T07:43:53;3.55;;;1.10;;
19030;SDS011;9648;51.130;13.978;2022-09-09T07:46:21;3.38;;;1.23;;
19030;SDS011;9648;51.130;13.978;2022-09-09T07:48:50;5.03;;;1.30;;
19030;SDS011;9648;51.130;13.978;2022-09-09T07:51:19;2.00;;;1.20;;
19030;SDS011;9648;51.130;13.978;2022-09-09T07:53:47;2.47;;;1.10;;
19030;SDS011;9648;51.130;13.978;2022-09-09T07:56:18;4.55;;;1.05;;
19030;SDS011;9648;51.130;13.978;2022-09-09T07:58:46;2.42;;;0.88;;
19030;SDS011;9648;51.130;13.978;2022-09-09T08:01:14;2.97;;;1.10;;
19030;SDS011;9648;51.130;13.978;2022-09-09T08:03:43;2.45;;;1.17;;
19030;SDS011;9648;51.130;13.978;2022-09-09T08:06:10;2.72;;;0.90;;
19030;SDS011;9648;51.130;13.978;2022-09-09T08:08:39;3.35;;;1.10;;
19030;SDS011;9648;51.130;13.978;2022-09-09T08:11:08;3.22;;;1.20;;
19030;SDS011;9648;51.130;13.978;2022-09-09T08:13:38;2.53;;;1.15;;
19030;SDS011;9648;51.130;13.978;2022-09-09T08:16:06;2.72;;;1.10;;
19030;SDS011;9648;51.130;13.978;2022-09-09T08:18:33;3.50;;;1.30;;
19030;SDS011;9648;51.130;13.978;2022-09-09T08:21:07;4.22;;;1.45;;
19030;SDS011;9648;51.130;13.978;2022-09-09T08:23:36;1.63;;;0.90;;
19030;SDS011;9648;51.130;13.978;2022-09-09T08:26:05;3.65;;;1.13;;
19030;SDS011;9648;51.130;13.978;2022-09-09T08:28:34;2.65;;;0.93;;
19030;SDS011;9648;51.130;13.978;2022-09-09T08:31:09;4.32;;;1.23;;
19030;SDS011;9648;51.130;13.978;2022-09-09T08:33:38;5.38;;;1.23;;
19030;SDS011;9648;51.130;13.978;2022-09-09T08:36:06;3.63;;;1.00;;
19030;SDS011;9648;51.130;13.978;2022-09-09T08:38:35;2.58;;;0.80;;
19030;SDS011;9648;51.130;13.978;2022-09-09T08:44:02;4.82;;;1.00;;
19030;SDS011;9648;51.130;13.978;2022-09-09T08:46:35;5.80;;;1.00;;
19030;SDS011;9648;51.130;13.978;2022-09-09T08:49:13;3.92;;;1.00;;
19030;SDS011;9648;51.130;13.978;2022-09-09T08:51:48;3.42;;;1.63;;
19030;SDS011;9648;51.130;13.978;2022-09-09T08:54:15;4.40;;;1.77;;
19030;SDS011;9648;51.130;13.978;2022-09-09T08:56:43;4.13;;;1.85;;
19030;SDS011;9648;51.130;13.978;2022-09-09T08:59:11;5.88;;;1.80;;
19030;SDS011;9648;51.130;13.978;2022-09-09T09:01:53;4.55;;;1.20;;
19030;SDS011;9648;51.130;13.978;2022-09-09T09:04:41;3.22;;;1.00;;
19030;SDS011;9648;51.130;13.978;2022-09-09T09:07:25;5.47;;;2.90;;
19030;SDS011;9648;51.130;13.978;2022-09-09T09:10:02;2.55;;;1.10;;
19030;SDS011;9648;51.130;13.978;2022-09-09T09:12:35;4.45;;;1.25;;
19030;SDS011;9648;51.130;13.978;2022-09-09T09:15:08;6.18;;;2.10;;
19030;SDS011;9648;51.130;13.978;2022-09-09T09:17:43;4.43;;;1.70;;
19030;SDS011;9648;51.130;13.978;2022-09-09T09:20:11;4.70;;;1.20;;
19030;SDS011;9648;51.130;13.978;2022-09-09T09:22:43;3.40;;;1.00;;
19030;SDS011;9648;51.130;13.978;2022-09-09T09:25:15;9.15;;;1.55;;
19030;SDS011;9648;51.130;13.978;2022-09-09T09:27:46;4.55;;;1.20;;
19030;SDS011;9648;51.130;13.978;2022-09-09T09:30:21;4.45;;;1.25;;
19030;SDS011;9648;51.130;13.978;2022-09-09T09:32:51;3.63;;;1.30;;
19030;SDS011;9648;51.130;13.978;2022-09-09T09:35:21;5.10;;;1.10;;
19030;SDS011;9648;51.130;13.978;2022-09-09T09:37:48;6.22;;;2.85;;
19030;SDS011;9648;51.130;13.978;2022-09-09T09:40:16;2.33;;;0.77;;
19030;SDS011;9648;51.130;13.978;2022-09-09T09:42:48;4.65;;;0.95;;
19030;SDS011;9648;51.130;13.978;2022-09-09T09:45:20;2.33;;;1.08;;
19030;SDS011;9648;51.130;13.978;2022-09-09T09:47:59;5.05;;;2.58;;
19030;SDS011;9648;51.130;13.978;2022-09-09T09:50:27;4.45;;;1.70;;
19030;SDS011;9648;51.130;13.978;2022-09-09T09:52:55;4.88;;;1.20;;
19030;SDS011;9648;51.130;13.978;2022-09-09T09:55:23;7.30;;;1.67;;
19030;SDS011;9648;51.130;13.978;2022-09-09T09:57:52;5.65;;;1.27;;
19030;SDS011;9648;51.130;13.978;2022-09-09T10:00:20;3.60;;;1.00;;
19030;SDS011;9648;51.130;13.978;2022-09-09T10:02:49;5.20;;;1.10;;
19030;SDS011;9648;51.130;13.978;2022-09-09T10:05:19;3.15;;;0.88;;
19030;SDS011;9648;51.130;13.978;2022-09-09T10:07:47;2.05;;;0.80;;
19030;SDS011;9648;51.130;13.978;2022-09-09T10:10:29;2.28;;;0.70;;
19030;SDS011;9648;51.130;13.978;2022-09-09T10:13:07;3.23;;;1.13;;
19030;SDS011;9648;51.130;13.978;2022-09-09T10:15:44;3.47;;;0.90;;
19030;SDS011;9648;51.130;13.978;2022-09-09T10:18:23;5.43;;;1.30;;
19030;SDS011;9648;51.130;13.978;2022-09-09T10:21:06;3.67;;;1.10;;
19030;SDS011;9648;51.130;13.978;2022-09-09T10:23:46;3.83;;;1.00;;
19030;SDS011;9648;51.130;13.978;2022-09-09T10:26:29;3.10;;;0.90;;
19030;SDS011;9648;51.130;13.978;2022-09-09T10:29:14;3.15;;;1.10;;
19030;SDS011;9648;51.130;13.978;2022-09-09T10:32:02;2.72;;;0.80;;
19030;SDS011;9648;51.130;13.978;2022-09-09T10:37:30;3.05;;;1.00;;
19030;SDS011;9648;51.130;13.978;2022-09-09T10:40:13;3.83;;;1.38;;
19030;SDS011;9648;51.130;13.978;2022-09-09T10:42:46;3.03;;;1.10;;
19030;SDS011;9648;51.130;13.978;2022-09-09T10:45:17;3.25;;;1.30;;
19030;SDS011;9648;51.130;13.978;2022-09-09T10:47:57;3.50;;;1.40;;
19030;SDS011;9648;51.130;13.978;2022-09-09T10:53:36;4.75;;;1.50;;
19030;SDS011;9648;51.130;13.978;2022-09-09T10:56:10;2.63;;;1.10;;
19030;SDS011;9648;51.130;13.978;2022-09-09T10:58:40;3.97;;;1.37;;
19030;SDS011;9648;51.130;13.978;2022-09-09T11:01:12;3.53;;;1.40;;
19030;SDS011;9648;51.130;13.978;2022-09-09T11:03:43;3.40;;;1.13;;
19030;SDS011;9648;51.130;13.978;2022-09-09T11:06:18;3.63;;;1.15;;
19030;SDS011;9648;51.130;13.978;2022-09-09T11:08:49;4.00;;;1.05;;
19030;SDS011;9648;51.130;13.978;2022-09-09T11:11:19;3.38;;;1.20;;
19030;SDS011;9648;51.130;13.978;2022-09-09T11:13:53;3.20;;;1.20;;
19030;SDS011;9648;51.130;13.978;2022-09-09T11:16:25;4.75;;;1.40;;
19030;SDS011;9648;51.130;13.978;2022-09-09T11:18:57;6.05;;;1.08;;
19030;SDS011;9648;51.130;13.978;2022-09-09T11:21:28;6.50;;;1.40;;
19030;SDS011;9648;51.130;13.978;2022-09-09T11:24:01;2.45;;;0.95;;
19030;SDS011;9648;51.130;13.978;2022-09-09T11:26:36;2.53;;;0.90;;
19030;SDS011;9648;51.130;13.978;2022-09-09T11:32:02;2.45;;;0.80;;
19030;SDS011;9648;51.130;13.978;2022-09-09T11:34:44;3.03;;;0.80;;
19030;SDS011;9648;51.130;13.978;2022-09-09T11:37:25;2.57;;;0.80;;
19030;SDS011;9648;51.130;13.978;2022-09-09T11:40:17;3.22;;;0.90;;
19030;SDS011;9648;51.130;13.978;2022-09-09T11:42:48;2.67;;;0.80;;
19030;SDS011;9648;51.130;13.978;2022-09-09T11:45:19;1.83;;;0.90;;
19030;SDS011;9648;51.130;13.978;2022-09-09T11:47:51;2.20;;;0.70;;
19030;SDS011;9648;51.130;13.978;2022-09-09T11:50:29;3.20;;;0.90;;
19030;SDS011;9648;51.130;13.978;2022-09-09T11:53:03;5.28;;;1.10;;
19030;SDS011;9648;51.130;13.978;2022-09-09T11:55:42;3.13;;;1.10;;
19030;SDS011;9648;51.130;13.978;2022-09-09T11:58:15;3.25;;;1.00;;
19030;SDS011;9648;51.130;13.978;2022-09-09T12:00:44;2.55;;;1.10;;
19030;SDS011;9648;51.130;13.978;2022-09-09T12:06:11;2.67;;;1.00;;
19030;SDS011;9648;51.130;13.978;2022-09-09T12:08:42;4.85;;;1.30;;
19030;SDS011;9648;51.130;13.978;2022-09-09T12:11:22;3.90;;;1.08;;
19030;SDS011;9648;51.130;13.978;2022-09-09T12:13:56;2.60;;;0.90;;
19030;SDS011;9648;51.130;13.978;2022-09-09T12:16:29;3.33;;;0.90;;
19030;SDS011;9648;51.130;13.978;2022-09-09T12:19:06;2.65;;;1.00;;
19030;SDS011;9648;51.130;13.978;2022-09-09T12:21:41;2.30;;;0.82;;
19030;SDS011;9648;51.130;13.978;2022-09-09T12:24:15;3.33;;;1.00;;
19030;SDS011;9648;51.130;13.978;2022-09-09T12:26:50;4.82;;;1.20;;
19030;SDS011;9648;51.130;13.978;2022-09-09T12:29:24;3.50;;;1.10;;
19030;SDS011;9648;51.130;13.978;2022-09-09T12:31:59;3.40;;;1.10;;
19030;SDS011;9648;51.130;13.978;2022-09-09T12:34:35;2.55;;;0.90;;
19030;SDS011;9648;51.130;13.978;2022-09-09T12:37:08;2.80;;;0.90;;
19030;SDS011;9648;51.130;13.978;2022-09-09T12:39:45;3.72;;;1.02;;
19030;SDS011;9648;51.130;13.978;2022-09-09T12:42:19;3.13;;;1.00;;
19030;SDS011;9648;51.130;13.978;2022-09-09T12:44:53;3.85;;;1.20;;
19030;SDS011;9648;51.130;13.978;2022-09-09T12:47:22;4.05;;;1.35;;
19030;SDS011;9648;51.130;13.978;2022-09-09T12:49:55;3.15;;;1.40;;
19030;SDS011;9648;51.130;13.978;2022-09-09T12:52:23;6.15;;;1.40;;
19030;SDS011;9648;51.130;13.978;2022-09-09T12:54:55;3.47;;;1.38;;
19030;SDS011;9648;51.130;13.978;2022-09-09T12:57:26;2.90;;;1.27;;
19030;SDS011;9648;51.130;13.978;2022-09-09T13:00:04;4.18;;;1.48;;
19030;SDS011;9648;51.130;13.978;2022-09-09T13:02:36;3.87;;;1.23;;
19030;SDS011;9648;51.130;13.978;2022-09-09T13:05:17;4.80;;;1.33;;
19030;SDS011;9648;51.130;13.978;2022-09-09T13:07:46;2.87;;;1.00;;
19030;SDS011;9648;51.130;13.978;2022-09-09T13:10:14;3.60;;;1.20;;
19030;SDS011;9648;51.130;13.978;2022-09-09T13:12:48;3.45;;;1.20;;
19030;SDS011;9648;51.130;13.978;2022-09-09T13:15:19;4.73;;;1.30;;
19030;SDS011;9648;51.130;13.978;2022-09-09T13:17:51;2.75;;;1.10;;
19030;SDS011;9648;51.130;13.978;2022-09-09T13:20:20;4.20;;;1.30;;
19030;SDS011;9648;51.130;13.978;2022-09-09T13:22:49;3.43;;;1.30;;
19030;SDS011;9648;51.130;13.978;2022-09-09T13:25:19;5.57;;;1.30;;
19030;SDS011;9648;51.130;13.978;2022-09-09T13:28:01;2.77;;;1.10;;
19030;SDS011;9648;51.130;13.978;2022-09-09T13:30:30;3.53;;;1.15;;
19030;SDS011;9648;51.130;13.978;2022-09-09T13:33:02;3.53;;;1.02;;
19030;SDS011;9648;51.130;13.978;2022-09-09T13:35:30;3.70;;;1.35;;
19030;SDS011;9648;51.130;13.978;2022-09-09T13:37:58;3.22;;;1.10;;
19030;SDS011;9648;51.130;13.978;2022-09-09T13:40:25;3.33;;;1.02;;
19030;SDS011;9648;51.130;13.978;2022-09-09T13:42:54;4.43;;;1.20;;
19030;SDS011;9648;51.130;13.978;2022-09-09T13:45:24;2.47;;;1.23;;
19030;SDS011;9648;51.130;13.978;2022-09-09T13:47:53;3.70;;;1.20;;
19030;SDS011;9648;51.130;13.978;2022-09-09T13:50:21;2.37;;;1.00;;
19030;SDS011;9648;51.130;13.978;2022-09-09T13:52:51;3.38;;;1.17;;
19030;SDS011;9648;51.130;13.978;2022-09-09T13:55:18;4.07;;;1.00;;
19030;SDS011;9648;51.130;13.978;2022-09-09T13:57:50;3.05;;;1.05;;
19030;SDS011;9648;51.130;13.978;2022-09-09T14:00:18;3.03;;;1.05;;
19030;SDS011;9648;51.130;13.978;2022-09-09T14:02:47;4.75;;;1.17;;
19030;SDS011;9648;51.130;13.978;2022-09-09T14:05:14;1.73;;;0.90;;
19030;SDS011;9648;51.130;13.978;2022-09-09T14:07:41;2.50;;;0.98;;
19030;SDS011;9648;51.130;13.978;2022-09-09T14:10:09;1.63;;;0.80;;
19030;SDS011;9648;51.130;13.978;2022-09-09T14:12:37;3.25;;;0.95;;
19030;SDS011;9648;51.130;13.978;2022-09-09T14:15:04;2.75;;;0.90;;
19030;SDS011;9648;51.130;13.978;2022-09-09T14:17:33;2.63;;;0.82;;
19030;SDS011;9648;51.130;13.978;2022-09-09T14:20:02;2.97;;;0.88;;
19030;SDS011;9648;51.130;13.978;2022-09-09T14:22:31;2.28;;;0.82;;
19030;SDS011;9648;51.130;13.978;2022-09-09T14:24:58;2.95;;;0.90;;
19030;SDS011;9648;51.130;13.978;2022-09-09T14:27:24;1.90;;;0.70;;
19030;SDS011;9648;51.130;13.978;2022-09-09T14:29:52;4.70;;;1.10;;
19030;SDS011;9648;51.130;13.978;2022-09-09T14:32:19;5.22;;;1.02;;
19030;SDS011;9648;51.130;13.978;2022-09-09T14:34:46;2.42;;;0.98;;
19030;SDS011;9648;51.130;13.978;2022-09-09T14:37:16;3.22;;;1.00;;
19030;SDS011;9648;51.130;13.978;2022-09-09T14:39:42;1.90;;;0.70;;
19030;SDS011;9648;51.130;13.978;2022-09-09T14:42:09;3.03;;;1.00;;
19030;SDS011;9648;51.130;13.978;2022-09-09T14:44:36;2.97;;;0.80;;
19030;SDS011;9648;51.130;13.978;2022-09-09T14:47:03;2.17;;;0.90;;
19030;SDS011;9648;51.130;13.978;2022-09-09T14:49:30;3.77;;;1.00;;
19030;SDS011;9648;51.130;13.978;2022-09-09T14:51:57;3.38;;;1.00;;
19030;SDS011;9648;51.130;13.978;2022-09-09T14:54:25;2.67;;;0.90;;
19030;SDS011;9648;51.130;13.978;2022-09-09T14:56:53;2.93;;;0.90;;
19030;SDS011;9648;51.130;13.978;2022-09-09T14:59:22;2.50;;;1.05;;
19030;SDS011;9648;51.130;13.978;2022-09-09T15:01:48;2.00;;;0.75;;
19030;SDS011;9648;51.130;13.978;2022-09-09T15:04:15;4.50;;;1.15;;
19030;SDS011;9648;51.130;13.978;2022-09-09T15:06:43;2.97;;;0.93;;
19030;SDS011;9648;51.130;13.978;2022-09-09T15:09:13;1.90;;;0.90;;
19030;SDS011;9648;51.130;13.978;2022-09-09T15:11:41;2.45;;;0.90;;
19030;SDS011;9648;51.130;13.978;2022-09-09T15:14:09;2.63;;;0.90;;
19030;SDS011;9648;51.130;13.978;2022-09-09T15:16:37;1.73;;;0.80;;
19030;SDS011;9648;51.130;13.978;2022-09-09T15:19:05;2.95;;;1.08;;
19030;SDS011;9648;51.130;13.978;2022-09-09T15:21:32;4.00;;;1.90;;
19030;SDS011;9648;51.130;13.978;2022-09-09T15:24:00;3.30;;;1.63;;